Time;durP1;ratioP1;P1;durP2;ratioP2;P2;SDS_P1;SDS_P2;PMS_P1;PMS_P2;Temp;Humidity;BMP_temperature;BMP_pressure;BME280_temperature;BME280_humidity;BME280_pressure;Samples;Min_cycle;Max_cycle;Signal;HPM_P1;HPM_P2
2021/04/03 00:00:45;;;;;;;19.95;10.35;;;4.60;99.90;;;;;;5034959;28;20099;-88
2021/04/03 00:03:15;;;;;;;12.40;7.53;;;4.60;99.90;;;;;;5026315;28;20139;-89
2021/04/03 00:05:42;;;;;;;14.77;9.45;;;4.70;99.90;;;;;;5041149;28;20141;-88
2021/04/03 00:08:10;;;;;;;23.02;9.50;;;4.70;99.90;;;;;;5051030;28;20072;-89
2021/04/03 00:10:46;;;;;;;22.50;9.77;;;4.80;99.90;;;;;;5038756;28;20119;-86
2021/04/03 00:13:19;;;;;;;21.13;10.32;;;4.80;99.90;;;;;;5056873;28;20045;-90
2021/04/03 00:15:46;;;;;;;15.82;8.40;;;4.80;99.90;;;;;;5056514;28;20041;-88
2021/04/03 00:18:16;;;;;;;18.63;8.90;;;4.80;99.90;;;;;;5050635;28;20037;-89
2021/04/03 00:20:45;;;;;;;15.00;8.48;;;4.80;99.90;;;;;;5048134;28;20405;-91
2021/04/03 00:23:13;;;;;;;16.90;8.77;;;4.80;99.90;;;;;;5055906;28;20147;-91
2021/04/03 00:25:39;;;;;;;18.33;9.02;;;4.80;99.90;;;;;;5058252;28;20488;-90
2021/04/03 00:28:06;;;;;;;20.88;8.55;;;4.90;99.90;;;;;;5058947;28;20079;-89
2021/04/03 00:30:33;;;;;;;19.65;8.82;;;4.80;99.90;;;;;;5058868;28;20076;-88
2021/04/03 00:33:03;;;;;;;15.35;8.27;;;4.80;99.90;;;;;;5057276;28;20136;-90
2021/04/03 00:35:32;;;;;;;21.70;9.52;;;4.80;99.90;;;;;;5027552;28;20041;-90
2021/04/03 00:38:00;;;;;;;17.77;9.10;;;4.80;99.90;;;;;;5056361;28;20207;-91
2021/04/03 00:40:30;;;;;;;19.63;9.98;;;4.80;99.90;;;;;;5039544;28;20044;-89
2021/04/03 00:43:02;;;;;;;16.70;8.60;;;4.70;99.90;;;;;;5055858;28;20069;-88
2021/04/03 00:45:30;;;;;;;18.92;8.95;;;4.70;99.90;;;;;;5053933;28;20068;-88
2021/04/03 00:47:59;;;;;;;22.35;9.52;;;4.60;99.90;;;;;;5057731;28;20422;-90
2021/04/03 00:50:32;;;;;;;22.65;10.02;;;4.60;99.90;;;;;;5035586;28;20067;-88
2021/04/03 00:53:02;;;;;;;21.52;9.80;;;4.60;99.90;;;;;;5054665;28;20044;-90
2021/04/03 00:55:29;;;;;;;25.30;8.88;;;4.50;99.90;;;;;;5036506;28;20466;-92
2021/04/03 00:57:55;;;;;;;19.42;9.07;;;4.50;99.90;;;;;;5043994;28;20136;-89
2021/04/03 01:00:24;;;;;;;17.58;8.70;;;4.50;99.90;;;;;;5042790;28;20080;-89
2021/04/03 01:02:51;;;;;;;16.65;9.10;;;4.40;99.90;;;;;;5054364;28;20129;-90
2021/04/03 01:05:20;;;;;;;17.77;10.10;;;4.40;99.90;;;;;;5053264;28;20081;-90
2021/04/03 01:07:49;;;;;;;26.85;8.60;;;4.40;99.90;;;;;;5045934;28;20075;-89
2021/04/03 01:10:27;;;;;;;20.73;9.32;;;4.40;99.90;;;;;;5054424;28;20045;-88
2021/04/03 01:13:12;;;;;;;14.68;8.57;;;4.40;99.90;;;;;;5054649;28;20055;-90
2021/04/03 01:16:14;;;;;;;18.10;8.98;;;4.30;99.90;;;;;;5038663;28;20080;-91
2021/04/03 01:19:08;;;;;;;17.10;9.15;;;4.30;99.90;;;;;;5051623;28;20132;-90
2021/04/03 01:22:07;;;;;;;22.85;9.50;;;4.30;99.90;;;;;;5053552;28;20072;-91
2021/04/03 01:24:55;;;;;;;20.58;8.43;;;4.30;99.90;;;;;;5067782;28;20091;-90
2021/04/03 01:27:26;;;;;;;17.08;8.93;;;4.30;99.90;;;;;;5072901;28;20060;-90
2021/04/03 01:30:29;;;;;;;19.15;8.25;;;4.30;99.90;;;;;;5037797;28;20080;-90
2021/04/03 01:33:08;;;;;;;18.90;9.05;;;4.20;99.90;;;;;;5038830;28;20136;-90
2021/04/03 01:35:40;;;;;;;19.23;8.65;;;4.30;99.90;;;;;;5049089;28;20143;-91
2021/04/03 01:38:10;;;;;;;17.52;9.68;;;4.20;99.90;;;;;;5055766;28;20059;-89
2021/04/03 01:40:38;;;;;;;16.45;8.35;;;4.10;99.90;;;;;;5037476;28;20132;-90
2021/04/03 01:43:09;;;;;;;22.23;9.55;;;4.10;99.90;;;;;;5034251;28;20100;-91
2021/04/03 01:45:39;;;;;;;13.65;8.20;;;4.10;99.90;;;;;;5045261;28;20152;-91
2021/04/03 01:48:11;;;;;;;20.05;9.05;;;4.10;99.90;;;;;;5049374;28;20095;-91
2021/04/03 01:50:42;;;;;;;15.80;8.35;;;4.00;99.90;;;;;;5049629;28;20127;-87
2021/04/03 01:53:10;;;;;;;19.10;8.75;;;4.00;99.90;;;;;;5053664;28;20041;-90
2021/04/03 01:55:38;;;;;;;15.98;9.88;;;4.00;99.90;;;;;;5049545;28;20090;-89
2021/04/03 01:58:07;;;;;;;16.33;9.85;;;4.00;99.90;;;;;;5053963;28;20426;-91
2021/04/03 02:00:35;;;;;;;20.80;9.13;;;4.00;99.90;;;;;;5055079;28;20053;-90
2021/04/03 02:03:04;;;;;;;18.05;9.02;;;4.00;99.90;;;;;;5047741;28;20120;-92
2021/04/03 02:05:31;;;;;;;16.75;9.52;;;4.00;99.90;;;;;;5053160;28;20440;-90
2021/04/03 02:08:01;;;;;;;18.17;10.15;;;4.00;99.90;;;;;;5054906;28;20045;-92
2021/04/03 02:10:31;;;;;;;13.05;8.85;;;4.00;99.90;;;;;;5036707;28;20057;-91
2021/04/03 02:13:03;;;;;;;18.02;8.75;;;4.00;99.90;;;;;;5054487;28;20158;-88
2021/04/03 02:15:32;;;;;;;17.75;9.30;;;4.00;99.90;;;;;;5028945;28;20041;-89
2021/04/03 02:18:03;;;;;;;21.70;9.45;;;4.00;99.90;;;;;;5047703;28;20041;-91
2021/04/03 02:20:29;;;;;;;18.50;9.70;;;4.00;99.90;;;;;;5054597;28;20048;-90
2021/04/03 02:22:57;;;;;;;20.10;9.35;;;4.00;99.90;;;;;;5048823;28;20106;-90
2021/04/03 02:25:24;;;;;;;17.42;8.85;;;4.00;99.90;;;;;;5036451;28;20049;-89
2021/04/03 02:27:52;;;;;;;19.33;10.07;;;3.90;99.90;;;;;;5039652;28;20415;-89
2021/04/03 02:30:23;;;;;;;16.92;9.50;;;3.90;99.90;;;;;;5028218;28;20107;-89
2021/04/03 02:32:55;;;;;;;27.40;9.57;;;3.80;99.90;;;;;;5040020;28;20039;-90
2021/04/03 02:35:24;;;;;;;18.13;9.55;;;3.80;99.90;;;;;;5051773;28;20124;-89
2021/04/03 02:37:57;;;;;;;15.80;9.00;;;3.80;99.90;;;;;;5050248;28;20051;-88
2021/04/03 02:40:29;;;;;;;17.05;9.05;;;3.80;99.90;;;;;;5005622;28;20140;-90
2021/04/03 02:43:31;;;;;;;14.73;9.15;;;3.80;99.90;;;;;;5048616;28;20049;-89
2021/04/03 02:46:03;;;;;;;21.33;8.77;;;3.80;99.90;;;;;;5039118;28;20089;-89
2021/04/03 02:48:33;;;;;;;14.43;9.23;;;3.70;99.90;;;;;;5053035;28;20064;-90
2021/04/03 02:51:03;;;;;;;21.38;9.38;;;3.70;99.90;;;;;;5061199;28;20075;-90
2021/04/03 02:53:33;;;;;;;19.23;9.23;;;3.70;99.90;;;;;;5058190;28;20037;-89
2021/04/03 02:56:03;;;;;;;17.38;9.18;;;3.60;99.90;;;;;;5048159;28;20045;-90
2021/04/03 02:58:35;;;;;;;22.33;8.88;;;3.60;99.90;;;;;;5062668;28;20068;-90
2021/04/03 03:01:05;;;;;;;14.60;8.73;;;3.60;99.90;;;;;;5051702;28;20045;-89
2021/04/03 03:03:36;;;;;;;17.73;9.63;;;3.60;99.90;;;;;;5053279;28;20111;-90
2021/04/03 03:06:05;;;;;;;15.52;8.07;;;3.60;99.90;;;;;;5061911;28;20088;-90
2021/04/03 03:08:34;;;;;;;15.90;8.73;;;3.50;99.90;;;;;;5037921;28;20114;-89
2021/04/03 03:11:04;;;;;;;16.33;8.60;;;3.50;99.90;;;;;;5053385;28;20056;-91
2021/04/03 03:13:34;;;;;;;19.88;8.52;;;3.50;99.90;;;;;;5045804;28;20477;-90
2021/04/03 03:16:03;;;;;;;13.82;8.30;;;3.40;99.90;;;;;;5052328;28;20076;-89
2021/04/03 03:18:39;;;;;;;;;;;3.40;99.90;;;;;;5054012;28;20110;-90
2021/04/03 03:21:07;;;;;;;17.08;8.90;;;3.40;99.90;;;;;;5041007;28;19920;-91
2021/04/03 03:23:36;;;;;;;20.00;8.73;;;3.30;99.90;;;;;;5040630;28;20053;-88
2021/04/03 03:26:03;;;;;;;20.83;9.07;;;3.20;99.90;;;;;;5050064;28;20118;-90
2021/04/03 03:28:31;;;;;;;19.42;8.52;;;3.10;99.90;;;;;;5054381;28;20053;-89
2021/04/03 03:31:00;;;;;;;16.20;8.55;;;3.00;99.90;;;;;;5036127;28;20052;-89
2021/04/03 03:33:27;;;;;;;17.88;8.35;;;3.00;99.90;;;;;;5035094;28;20354;-89
2021/04/03 03:35:57;;;;;;;19.58;8.27;;;3.10;99.90;;;;;;5052522;28;20057;-89
2021/04/03 03:38:36;;;;;;;16.20;7.82;;;3.10;99.90;;;;;;5055297;28;20127;-89
2021/04/03 03:41:04;;;;;;;15.27;7.95;;;3.10;99.90;;;;;;5057573;28;20131;-91
2021/04/03 03:43:31;;;;;;;12.13;7.70;;;3.10;99.90;;;;;;5058533;28;20068;-92
2021/04/03 03:46:00;;;;;;;20.77;8.38;;;3.20;99.90;;;;;;5037692;28;20059;-92
2021/04/03 03:48:27;;;;;;;10.00;7.00;;;3.20;99.90;;;;;;5052710;28;20045;-91
2021/04/03 03:50:56;;;;;;;13.48;7.85;;;3.20;99.90;;;;;;5033625;28;20084;-91
2021/04/03 03:53:23;;;;;;;10.00;7.40;;;3.20;99.90;;;;;;5028862;28;20150;-89
2021/04/03 03:55:50;;;;;;;20.65;8.55;;;3.10;99.90;;;;;;5044943;28;20437;-88
2021/04/03 03:58:18;;;;;;;18.08;8.18;;;3.10;99.90;;;;;;5047023;28;20131;-89
2021/04/03 04:00:46;;;;;;;17.85;8.85;;;2.90;99.90;;;;;;5056498;28;20059;-89
2021/04/03 04:03:12;;;;;;;16.20;8.57;;;2.80;99.90;;;;;;5054041;28;20044;-90
2021/04/03 04:05:40;;;;;;;18.00;9.65;;;2.80;99.90;;;;;;5055936;28;20080;-89
2021/04/03 04:08:10;;;;;;;14.77;8.70;;;2.80;99.90;;;;;;5056533;28;20531;-90
2021/04/03 04:10:37;;;;;;;14.20;8.50;;;2.80;99.90;;;;;;5056210;28;20128;-90
2021/04/03 04:13:06;;;;;;;13.40;7.85;;;2.80;99.90;;;;;;5056222;28;20051;-89
2021/04/03 04:15:32;;;;;;;22.63;8.82;;;2.80;99.90;;;;;;5052314;28;20110;-89
2021/04/03 04:18:10;;;;;;;19.92;8.43;;;2.80;99.90;;;;;;5056892;28;20478;-90
2021/04/03 04:20:37;;;;;;;15.80;8.32;;;2.70;99.90;;;;;;5037036;28;20041;-90
2021/04/03 04:23:03;;;;;;;27.98;10.10;;;2.80;99.90;;;;;;5055876;28;20051;-93
2021/04/03 04:25:30;;;;;;;17.98;9.52;;;2.70;99.90;;;;;;5055851;28;20068;-92
2021/04/03 04:28:04;;;;;;;16.73;9.30;;;2.70;99.90;;;;;;5056277;28;20049;-89
2021/04/03 04:30:30;;;;;;;19.27;9.68;;;2.50;99.90;;;;;;5039669;28;20151;-89
2021/04/03 04:32:59;;;;;;;18.13;9.18;;;2.50;99.90;;;;;;5057404;28;20076;-90
2021/04/03 04:35:25;;;;;;;20.08;9.88;;;2.30;99.90;;;;;;5037853;28;20549;-91
2021/04/03 04:37:52;;;;;;;16.02;9.20;;;2.30;99.90;;;;;;5058263;28;20044;-90
2021/04/03 04:40:18;;;;;;;22.85;9.88;;;2.10;99.90;;;;;;5054456;28;20056;-90
2021/04/03 04:42:44;;;;;;;21.95;9.32;;;2.10;99.90;;;;;;5038780;28;20045;-89
2021/04/03 04:45:17;;;;;;;15.27;9.15;;;1.90;99.90;;;;;;5050232;28;20538;-90
2021/04/03 04:47:44;;;;;;;17.17;9.23;;;1.90;99.90;;;;;;5055636;28;20099;-90
2021/04/03 04:50:11;;;;;;;14.77;7.85;;;1.90;99.90;;;;;;5042845;28;20451;-90
2021/04/03 04:52:40;;;;;;;16.67;8.73;;;1.90;99.90;;;;;;5046007;28;20045;-88
2021/04/03 04:55:07;;;;;;;20.60;8.70;;;1.80;99.90;;;;;;5051670;28;20101;-89
2021/04/03 04:57:34;;;;;;;16.27;8.57;;;1.80;99.90;;;;;;5036183;28;20094;-89
2021/04/03 05:00:06;;;;;;;15.15;8.15;;;1.80;99.90;;;;;;5056737;28;20051;-93
2021/04/03 05:02:35;;;;;;;18.55;8.68;;;1.90;99.90;;;;;;5055227;28;20087;-89
2021/04/03 05:05:02;;;;;;;14.20;7.82;;;1.90;99.90;;;;;;5023991;28;20112;-91
2021/04/03 05:07:28;;;;;;;22.63;8.18;;;2.00;99.90;;;;;;5049338;28;20087;-89
2021/04/03 05:09:55;;;;;;;12.98;8.02;;;2.10;99.90;;;;;;5050451;28;20104;-90
2021/04/03 05:12:23;;;;;;;16.08;7.75;;;2.10;99.90;;;;;;5039881;28;20098;-90
2021/04/03 05:14:50;;;;;;;20.80;8.32;;;2.20;99.90;;;;;;5053483;28;20168;-91
2021/04/03 05:17:21;;;;;;;21.73;8.20;;;2.30;99.90;;;;;;5052863;28;20533;-89
2021/04/03 05:19:48;;;;;;;17.05;8.18;;;2.30;99.90;;;;;;5041694;28;20124;-89
2021/04/03 05:22:16;;;;;;;13.60;7.70;;;2.40;99.90;;;;;;5069098;28;20117;-91
2021/04/03 05:24:43;;;;;;;15.93;7.90;;;2.40;99.90;;;;;;5069497;28;20060;-90
2021/04/03 05:27:12;;;;;;;16.33;8.18;;;2.50;99.90;;;;;;5052756;28;20045;-89
2021/04/03 05:29:38;;;;;;;14.82;7.97;;;2.50;99.90;;;;;;5042312;28;20073;-90
2021/04/03 05:32:08;;;;;;;16.92;7.68;;;2.60;99.90;;;;;;5059465;28;20075;-91
2021/04/03 05:34:34;;;;;;;17.17;8.02;;;2.60;99.90;;;;;;5056150;28;20041;-90
2021/04/03 05:37:17;;;;;;;14.43;7.50;;;2.70;99.90;;;;;;5054748;28;20355;-89
2021/04/03 05:39:46;;;;;;;13.75;6.88;;;2.80;99.90;;;;;;5053271;28;20119;-90
2021/04/03 05:42:18;;;;;;;14.65;7.18;;;2.90;99.90;;;;;;5049377;28;20053;-91
2021/04/03 05:44:50;;;;;;;10.10;7.20;;;3.00;99.90;;;;;;5054803;28;20512;-91
2021/04/03 05:47:41;;;;;;;13.30;6.07;;;3.10;99.90;;;;;;5054001;28;20065;-91
2021/04/03 05:50:09;;;;;;;11.02;6.50;;;3.10;99.90;;;;;;5054130;28;20485;-92
2021/04/03 05:52:38;;;;;;;15.52;7.20;;;3.20;99.90;;;;;;5037168;28;20068;-90
2021/04/03 05:55:08;;;;;;;14.73;6.80;;;3.30;99.90;;;;;;5054356;28;20142;-91
2021/04/03 05:57:36;;;;;;;12.02;6.45;;;3.30;99.90;;;;;;5024644;28;20065;-92
2021/04/03 06:00:06;;;;;;;15.20;6.70;;;3.40;99.90;;;;;;5054227;28;20139;-92
2021/04/03 06:02:37;;;;;;;13.00;6.25;;;3.50;99.90;;;;;;5054792;28;20076;-92
2021/04/03 06:05:08;;;;;;;16.90;6.38;;;3.50;99.90;;;;;;5049015;28;20449;-91
2021/04/03 06:11:11;;;;;;;13.35;7.00;;;3.60;99.90;;;;;;5034304;28;20067;-91
2021/04/03 06:13:42;;;;;;;11.77;6.57;;;3.70;99.90;;;;;;5063307;28;20072;-91
2021/04/03 06:16:31;;;;;;;15.10;6.32;;;3.80;99.90;;;;;;5059088;28;20033;-92
2021/04/03 06:19:16;;;;;;;12.50;6.13;;;3.90;99.90;;;;;;5058818;28;20059;-91
2021/04/03 06:21:54;;;;;;;14.27;6.57;;;4.00;99.90;;;;;;5066371;28;20032;-91
2021/04/03 06:24:27;;;;;;;14.80;6.35;;;4.10;99.90;;;;;;5073811;28;20120;-91
2021/04/03 06:27:07;;;;;;;16.00;6.15;;;4.30;99.90;;;;;;5064692;28;20045;-90
2021/04/03 06:29:38;;;;;;;18.08;6.50;;;4.40;99.90;;;;;;5060260;28;20469;-91
2021/04/03 06:32:11;;;;;;;14.68;6.70;;;4.50;99.90;;;;;;5048830;28;20099;-86
2021/04/03 06:34:40;;;;;;;13.27;7.07;;;4.80;99.90;;;;;;5050306;28;20072;-85
2021/04/03 06:37:09;;;;;;;11.35;5.80;;;5.00;99.90;;;;;;5037456;28;20041;-86
2021/04/03 06:40:01;;;;;;;14.30;6.13;;;5.70;99.90;;;;;;5055274;28;20040;-87
2021/04/03 06:42:43;;;;;;;10.85;5.70;;;6.10;99.90;;;;;;5022865;28;20439;-86
2021/04/03 06:45:26;;;;;;;16.95;5.63;;;6.20;98.80;;;;;;5047785;28;20166;-87
2021/04/03 06:47:57;;;;;;;14.23;5.50;;;6.10;99.90;;;;;;5047443;28;20057;-88
2021/04/03 06:50:35;;;;;;;15.73;5.43;;;5.90;99.90;;;;;;5052293;28;20099;-88
2021/04/03 06:53:05;;;;;;;;;;;6.20;99.90;;;;;;5054966;28;20045;-86
2021/04/03 06:55:33;;;;;;;16.23;5.05;;;6.80;98.50;;;;;;5047514;28;19947;-87
2021/04/03 06:58:04;;;;;;;11.00;4.70;;;7.10;94.40;;;;;;5048565;28;20053;-88
2021/04/03 07:00:33;;;;;;;11.23;4.55;;;7.50;91.10;;;;;;5033576;28;20490;-88
2021/04/03 07:03:17;;;;;;;8.70;4.50;;;7.80;90.30;;;;;;5044565;28;20110;-88
2021/04/03 07:05:45;;;;;;;9.75;4.45;;;8.10;86.80;;;;;;5060860;28;20063;-86
2021/04/03 07:08:12;;;;;;;9.88;4.50;;;8.00;85.50;;;;;;5046458;28;20498;-86
2021/04/03 07:10:44;;;;;;;10.48;4.70;;;7.50;87.70;;;;;;5052229;28;20049;-90
2021/04/03 07:13:11;;;;;;;9.40;4.28;;;7.20;90.60;;;;;;5035393;28;20519;-89
2021/04/03 07:15:38;;;;;;;9.80;4.65;;;7.00;92.00;;;;;;5018076;28;20069;-87
2021/04/03 07:18:09;;;;;;;8.88;4.47;;;7.50;92.00;;;;;;5033543;28;20125;-90
2021/04/03 07:20:36;;;;;;;15.32;4.88;;;8.00;91.10;;;;;;5052462;28;20045;-89
2021/04/03 07:23:11;;;;;;;8.50;4.32;;;8.40;84.80;;;;;;5053038;28;20537;-90
2021/04/03 07:25:43;;;;;;;11.00;4.20;;;8.60;79.80;;;;;;5047924;28;20078;-91
2021/04/03 07:28:10;;;;;;;7.80;4.17;;;8.80;80.30;;;;;;5022915;28;20049;-87
2021/04/03 07:30:38;;;;;;;11.15;4.40;;;8.90;76.00;;;;;;5044104;28;20477;-89
2021/04/03 07:33:20;;;;;;;8.15;3.90;;;8.80;75.40;;;;;;5054195;28;20401;-90
2021/04/03 07:36:02;;;;;;;8.30;4.05;;;8.90;74.90;;;;;;5043639;28;20075;-89
2021/04/03 07:38:35;;;;;;;7.88;4.15;;;9.00;73.60;;;;;;5033300;28;20044;-88
2021/04/03 07:41:10;;;;;;;7.00;4.00;;;8.80;73.80;;;;;;5054312;28;20107;-91
2021/04/03 07:43:46;;;;;;;10.25;4.07;;;8.60;73.10;;;;;;5046923;28;20044;-89
2021/04/03 07:46:25;;;;;;;9.65;4.18;;;8.20;76.60;;;;;;5043176;28;20045;-88
2021/04/03 07:48:59;;;;;;;11.57;3.67;;;8.50;78.00;;;;;;5053817;28;20128;-89
2021/04/03 07:51:25;;;;;;;10.02;3.67;;;8.40;75.70;;;;;;5045531;28;20052;-90
2021/04/03 07:53:56;;;;;;;7.70;3.67;;;8.50;76.00;;;;;;5044956;28;20522;-89
2021/04/03 07:56:44;;;;;;;6.68;3.65;;;8.40;76.20;;;;;;5055312;28;20127;-89
2021/04/03 07:59:11;;;;;;;6.75;3.70;;;8.90;76.70;;;;;;5053683;28;20195;-89
2021/04/03 08:01:57;;;;;;;8.40;3.50;;;9.00;72.70;;;;;;5037554;28;20064;-91
2021/04/03 08:04:58;;;;;;;8.57;3.65;;;8.90;71.10;;;;;;5045648;28;20386;-89
2021/04/03 08:07:42;;;;;;;8.48;3.70;;;8.40;72.70;;;;;;4996563;28;20057;-89
2021/04/03 08:13:59;;;;;;;9.18;3.25;;;9.00;71.90;;;;;;5011547;28;20055;-90
2021/04/03 08:16:58;;;;;;;7.07;2.92;;;9.50;70.70;;;;;;5048306;28;20126;-88
2021/04/03 08:19:58;;;;;;;5.63;3.28;;;9.60;65.30;;;;;;5028338;28;20075;-88
2021/04/03 08:23:04;;;;;;;8.07;3.60;;;8.60;67.80;;;;;;5029248;28;20041;-89
2021/04/03 08:25:56;;;;;;;4.93;3.28;;;8.10;71.80;;;;;;5046345;28;20430;-90
2021/04/03 08:29:02;;;;;;;6.60;3.67;;;7.60;74.00;;;;;;5039550;28;20049;-87
2021/04/03 08:31:59;;;;;;;8.18;3.22;;;8.10;75.40;;;;;;5055269;28;20049;-91
2021/04/03 08:34:56;;;;;;;7.72;3.45;;;9.70;71.20;;;;;;5038217;28;20041;-90
2021/04/03 08:38:03;;;;;;;6.68;3.08;;;11.00;66.10;;;;;;5056368;28;20106;-90
2021/04/03 08:40:58;;;;;;;4.47;2.25;;;11.90;59.30;;;;;;5038591;28;20083;-91
2021/04/03 08:43:59;;;;;;;6.60;2.72;;;12.40;56.50;;;;;;5042032;28;20076;-91
2021/04/03 08:51:05;;;;;;;7.82;2.65;;;12.50;55.20;;;;;;5058642;28;20119;-89
2021/04/03 08:53:59;;;;;;;7.63;2.50;;;12.70;56.40;;;;;;5035591;28;20053;-87
2021/04/03 08:56:56;;;;;;;7.78;2.70;;;13.50;55.20;;;;;;5048568;28;20041;-88
2021/04/03 09:00:02;;;;;;;4.50;2.50;;;14.70;53.90;;;;;;5038624;28;20048;-89
2021/04/03 09:02:58;;;;;;;6.40;2.78;;;14.70;50.40;;;;;;5030850;28;20458;-88
2021/04/03 09:05:57;;;;;;;5.95;2.70;;;14.90;50.60;;;;;;5004642;28;20053;-89
2021/04/03 09:09:02;;;;;;;5.55;2.50;;;15.30;48.20;;;;;;5006126;28;20046;-89
2021/04/03 09:12:04;;;;;;;7.70;2.75;;;14.90;47.60;;;;;;4987860;28;20157;-88
2021/04/03 09:15:02;;;;;;;5.43;2.55;;;12.90;51.10;;;;;;5013286;28;20058;-89
2021/04/03 09:18:01;;;;;;;7.80;2.47;;;11.40;54.60;;;;;;4983012;28;20124;-90
2021/04/03 09:21:03;;;;;;;8.40;2.90;;;10.40;57.30;;;;;;4977421;28;20585;-89
2021/04/03 09:24:02;;;;;;;6.28;3.08;;;9.70;58.80;;;;;;5003588;28;20042;-89
2021/04/03 09:26:56;;;;;;;11.35;2.90;;;9.10;61.50;;;;;;5085359;23;20047;-88
2021/04/03 09:34:07;;;;;;;6.18;2.65;;;11.40;59.60;;;;;;5437921;23;20056;-89
2021/04/03 09:40:46;;;;;;;5.18;2.30;;;16.50;49.20;;;;;;5046495;28;20041;-90
2021/04/03 09:44:00;;;;;;;5.68;2.33;;;17.80;44.40;;;;;;5025136;28;20050;-90
2021/04/03 09:46:59;;;;;;;4.78;2.10;;;17.20;43.90;;;;;;5028419;28;20080;-91
2021/04/03 09:50:04;;;;;;;;;;;16.80;44.80;;;;;;5033002;28;20046;-89
2021/04/03 09:53:30;;;;;;;6.72;2.75;;;15.40;45.40;;;;;;5028905;28;19922;-89
2021/04/03 09:55:57;;;;;;;8.55;2.72;;;14.00;47.70;;;;;;4944676;29;20055;-90
2021/04/03 09:59:02;;;;;;;6.72;2.75;;;12.90;50.00;;;;;;4926741;29;20052;-90
2021/04/03 10:01:57;;;;;;;7.68;2.15;;;12.10;51.80;;;;;;4928279;29;20062;-90
2021/04/03 10:05:01;;;;;;;7.57;2.42;;;11.60;53.10;;;;;;4935825;29;20449;-92
2021/04/03 10:07:53;;;;;;;6.68;2.22;;;11.90;53.90;;;;;;5030958;28;20091;-90
2021/04/03 10:10:56;;;;;;;6.78;2.53;;;12.50;53.10;;;;;;5024824;28;20053;-87
2021/04/03 10:14:01;;;;;;;6.93;2.97;;;12.40;51.70;;;;;;5019884;28;20065;-88
2021/04/03 10:17:02;;;;;;;8.85;2.63;;;11.60;52.50;;;;;;4949100;29;20129;-88
2021/04/03 10:20:02;;;;;;;8.48;2.50;;;11.80;53.80;;;;;;4949786;29;20063;-89
2021/04/03 10:22:59;;;;;;;8.45;2.50;;;12.20;54.00;;;;;;4948032;29;20082;-88
2021/04/03 10:26:00;;;;;;;4.63;2.83;;;13.90;52.50;;;;;;4919763;29;20614;-88
2021/04/03 10:28:54;;;;;;;5.20;2.28;;;14.70;48.20;;;;;;4926022;29;20136;-89
2021/04/03 10:31:23;;;;;;;6.05;2.33;;;14.00;47.60;;;;;;4909053;29;20056;-89
2021/04/03 10:33:57;;;;;;;6.65;2.58;;;13.60;47.70;;;;;;4969071;28;20057;-87
2021/04/03 10:37:03;;;;;;;6.30;2.40;;;13.00;47.50;;;;;;5027793;28;20119;-90
2021/04/03 10:40:02;;;;;;;6.03;2.30;;;12.00;49.50;;;;;;5018780;28;20080;-90
2021/04/03 10:43:08;;;;;;;5.78;2.72;;;12.00;51.70;;;;;;5019242;28;20049;-94
2021/04/03 10:46:00;;;;;;;7.97;2.65;;;13.00;52.10;;;;;;5035989;28;20423;-92
2021/04/03 10:48:41;;;;;;;5.88;2.42;;;14.70;47.90;;;;;;5024443;28;20143;-92
2021/04/03 10:51:08;;;;;;;6.55;2.35;;;15.10;45.70;;;;;;5027261;28;20049;-93
2021/04/03 10:53:35;;;;;;;3.45;1.98;;;16.00;44.80;;;;;;5033972;28;20049;-90
2021/04/03 10:56:04;;;;;;;3.95;2.20;;;15.30;42.90;;;;;;5034311;28;20045;-92
2021/04/03 10:58:31;;;;;;;4.80;2.33;;;15.40;45.50;;;;;;5040626;28;20053;-90
2021/04/03 11:01:03;;;;;;;5.10;2.40;;;16.90;41.70;;;;;;5009873;28;20050;-91
2021/04/03 11:03:31;;;;;;;6.75;2.97;;;17.20;41.80;;;;;;5004828;28;20060;-91
2021/04/03 11:05:57;;;;;;;4.15;2.47;;;16.80;41.90;;;;;;4997401;28;20102;-92
2021/04/03 11:08:25;;;;;;;5.40;2.08;;;16.30;43.70;;;;;;5015108;28;20132;-90
2021/04/03 11:10:52;;;;;;;7.30;2.95;;;17.00;43.20;;;;;;5033125;28;20091;-91
2021/04/03 11:13:21;;;;;;;5.50;2.17;;;17.60;40.40;;;;;;5030940;28;20136;-91
2021/04/03 11:15:48;;;;;;;3.05;2.10;;;17.30;39.60;;;;;;5023627;28;20137;-90
2021/04/03 11:18:16;;;;;;;4.40;2.22;;;17.00;41.40;;;;;;5027006;28;20076;-88
2021/04/03 11:20:42;;;;;;;7.55;2.53;;;15.60;41.10;;;;;;5033612;28;20509;-89
2021/04/03 11:23:11;;;;;;;7.47;2.47;;;14.10;44.20;;;;;;5034921;28;20120;-91
2021/04/03 11:25:37;;;;;;;4.93;1.98;;;13.70;44.50;;;;;;5037351;28;20061;-93
2021/04/03 11:28:04;;;;;;;3.70;2.28;;;14.10;45.60;;;;;;5016341;28;20060;-91
2021/04/03 11:30:30;;;;;;;4.32;2.13;;;15.60;43.70;;;;;;5032054;28;20123;-88
2021/04/03 11:33:03;;;;;;;4.05;2.03;;;16.40;41.00;;;;;;5036955;28;20437;-91
2021/04/03 11:35:31;;;;;;;3.60;1.83;;;17.60;39.40;;;;;;5024470;28;20198;-89
2021/04/03 11:37:57;;;;;;;5.60;2.20;;;17.50;36.60;;;;;;5036686;28;20038;-89
2021/04/03 11:40:24;;;;;;;4.20;1.92;;;17.00;39.20;;;;;;5031472;28;20063;-88
2021/04/03 11:42:55;;;;;;;3.33;1.48;;;17.50;38.60;;;;;;5018872;28;20171;-92
2021/04/03 11:45:25;;;;;;;7.25;2.05;;;18.00;36.40;;;;;;5028858;28;20045;-88
2021/04/03 11:47:52;;;;;;;4.57;2.13;;;17.50;35.90;;;;;;5017019;28;20041;-89
2021/04/03 11:50:20;;;;;;;3.05;1.60;;;16.70;37.30;;;;;;5038451;28;20071;-90
2021/04/03 11:52:47;;;;;;;5.30;2.13;;;16.70;37.00;;;;;;5025732;28;20057;-92
2021/04/03 11:55:17;;;;;;;3.00;1.80;;;17.50;37.70;;;;;;5035540;28;20052;-89
2021/04/03 11:57:44;;;;;;;5.65;2.00;;;18.10;37.20;;;;;;5037041;28;20376;-90
2021/04/03 12:00:14;;;;;;;3.78;1.88;;;18.40;35.70;;;;;;5029735;28;20069;-89
2021/04/03 12:02:40;;;;;;;7.75;2.10;;;17.80;33.80;;;;;;5030538;28;20466;-90
2021/04/03 12:05:08;;;;;;;6.38;1.80;;;17.70;37.00;;;;;;5036622;28;20155;-89
2021/04/03 12:07:46;;;;;;;6.00;2.15;;;16.60;36.70;;;;;;5040210;28;20441;-88
2021/04/03 12:10:15;;;;;;;7.18;2.65;;;15.10;39.30;;;;;;5041746;28;20041;-88
2021/04/03 12:12:45;;;;;;;4.45;2.13;;;14.30;42.00;;;;;;5037234;28;20046;-92
2021/04/03 12:15:14;;;;;;;6.80;2.40;;;13.80;43.10;;;;;;5044338;28;20052;-89
2021/04/03 12:17:44;;;;;;;4.63;2.58;;;13.30;44.40;;;;;;5046970;28;20038;-88
2021/04/03 12:20:13;;;;;;;6.63;2.60;;;12.50;46.10;;;;;;5019876;28;20425;-90
2021/04/03 12:22:40;;;;;;;6.07;2.15;;;11.60;47.00;;;;;;5038113;28;20501;-90
2021/04/03 12:25:10;;;;;;;5.22;2.22;;;11.90;49.70;;;;;;5031131;28;20125;-89
2021/04/03 12:27:39;;;;;;;2.95;1.90;;;13.90;44.80;;;;;;5036065;28;20046;-92
2021/04/03 12:30:09;;;;;;;4.07;1.80;;;15.30;41.50;;;;;;5019681;28;20181;-88
2021/04/03 12:33:01;;;;;;;3.70;1.80;;;15.20;40.30;;;;;;5023824;28;20102;-88
2021/04/03 12:35:59;;;;;;;5.28;2.00;;;14.40;37.80;;;;;;5029508;28;20049;-89
2021/04/03 12:38:56;;;;;;;5.25;2.13;;;13.50;41.00;;;;;;5014546;28;20057;-90
2021/04/03 12:42:03;;;;;;;5.13;2.20;;;12.20;43.50;;;;;;5021806;28;20061;-90
2021/04/03 12:45:01;;;;;;;9.93;2.78;;;11.40;47.20;;;;;;5044024;28;20068;-88
2021/04/03 12:47:44;;;;;;;3.55;2.22;;;11.00;48.30;;;;;;5035165;28;20049;-91
2021/04/03 12:50:12;;;;;;;6.95;3.55;;;10.60;50.00;;;;;;5032912;28;20057;-90
2021/04/03 12:52:38;;;;;;;6.90;3.10;;;10.50;50.80;;;;;;5037119;28;20468;-89
2021/04/03 12:55:08;;;;;;;11.65;3.53;;;10.40;51.50;;;;;;5035762;28;20562;-91
2021/04/03 12:57:34;;;;;;;5.40;2.78;;;10.70;51.70;;;;;;5049753;28;20338;-87
2021/04/03 13:00:02;;;;;;;6.53;2.78;;;10.80;52.10;;;;;;5014010;28;20148;-90
2021/04/03 13:02:28;;;;;;;7.03;2.70;;;10.80;51.90;;;;;;5040403;28;20080;-91
2021/04/03 13:04:55;;;;;;;5.25;2.72;;;10.70;51.00;;;;;;5032795;28;20411;-90
2021/04/03 13:07:21;;;;;;;7.20;2.60;;;10.50;50.70;;;;;;5026834;28;20113;-89
2021/04/03 13:09:48;;;;;;;9.57;3.28;;;10.30;51.20;;;;;;5029985;28;20442;-89
2021/04/03 13:12:14;;;;;;;4.53;2.67;;;10.20;51.30;;;;;;5037913;28;20057;-88
2021/04/03 13:14:42;;;;;;;6.07;2.50;;;10.40;50.80;;;;;;5037412;28;20092;-89
2021/04/03 13:17:08;;;;;;;6.00;2.22;;;10.50;49.40;;;;;;5036213;28;20052;-89
2021/04/03 13:19:36;;;;;;;2.90;1.95;;;11.20;48.20;;;;;;5011478;28;20041;-90
2021/04/03 13:22:05;;;;;;;5.63;2.30;;;11.90;45.70;;;;;;5035314;28;20109;-91
2021/04/03 13:24:31;;;;;;;6.10;3.33;;;12.10;45.40;;;;;;5017933;28;20053;-88
2021/04/03 13:27:00;;;;;;;4.38;2.63;;;12.00;46.00;;;;;;5035731;28;20081;-88
2021/04/03 13:29:27;;;;;;;5.78;2.78;;;11.40;47.60;;;;;;5000314;28;20483;-89
2021/04/03 13:31:53;;;;;;;5.50;2.72;;;11.00;49.60;;;;;;5034410;28;20092;-89
2021/04/03 13:34:19;;;;;;;8.20;3.63;;;10.70;50.60;;;;;;5039538;28;20045;-91
2021/04/03 13:36:46;;;;;;;7.03;4.20;;;10.40;51.10;;;;;;5031598;28;20053;-88
2021/04/03 13:39:13;;;;;;;6.22;3.47;;;10.30;51.90;;;;;;5035397;28;20120;-89
2021/04/03 13:41:41;;;;;;;5.25;2.70;;;10.40;51.50;;;;;;5037061;28;20049;-90
2021/04/03 13:44:07;;;;;;;10.40;3.13;;;10.30;51.00;;;;;;5052853;28;20042;-89
2021/04/03 13:46:35;;;;;;;5.63;2.78;;;10.40;50.50;;;;;;5035151;28;20076;-89
2021/04/03 13:49:02;;;;;;;3.38;2.47;;;10.40;50.80;;;;;;5019736;28;20053;-89